createdAt,value
2022-10-18T00:00:20.424Z,0
2022-10-18T00:20:21.595Z,0
2022-10-18T00:30:21.908Z,0
2022-10-18T00:50:22.884Z,19
2022-10-18T01:00:23.133Z,0
2022-10-18T01:40:25.708Z,0
2022-10-18T02:20:27.572Z,0
2022-10-18T02:30:28.235Z,0
2022-10-18T03:10:31.202Z,0
2022-10-18T03:20:31.850Z,9
2022-10-18T03:40:32.342Z,0
2022-10-18T04:10:34.065Z,0
2022-10-18T04:30:35.425Z,0
2022-10-18T04:40:35.635Z,0
2022-10-18T04:50:35.910Z,0
2022-10-18T05:00:39.204Z,0
2022-10-18T05:30:38.346Z,4
2022-10-18T05:40:38.445Z,0
2022-10-18T05:50:40.208Z,34
2022-10-18T06:00:39.610Z,3
2022-10-18T06:30:40.759Z,10
2022-10-18T06:40:41.352Z,15
2022-10-18T06:50:42.103Z,3
2022-10-18T07:00:42.351Z,1
2022-10-18T07:10:42.430Z,0
2022-10-18T07:20:43.405Z,0
2022-10-18T07:30:43.992Z,22
2022-10-18T07:50:45.558Z,15
2022-10-18T08:10:47.025Z,23
2022-10-18T08:20:47.553Z,0
2022-10-18T08:30:47.930Z,0
2022-10-18T08:40:48.723Z,0
2022-10-18T08:50:48.943Z,0
2022-10-18T09:00:49.525Z,0
2022-10-18T09:10:49.798Z,0
2022-10-18T09:20:49.977Z,0
2022-10-18T09:30:50.308Z,0
2022-10-18T09:40:50.417Z,0
2022-10-18T09:50:51.128Z,0
2022-10-18T10:00:51.198Z,0
2022-10-18T10:10:51.819Z,6
2022-10-18T10:20:52.317Z,3
2022-10-18T10:30:53.332Z,36
2022-10-18T10:40:53.600Z,50
2022-10-18T10:50:55.022Z,17
2022-10-18T11:00:54.667Z,0
2022-10-18T11:10:54.888Z,0
2022-10-18T11:20:55.174Z,0
2022-10-18T11:30:55.447Z,0
2022-10-18T11:50:56.649Z,0
2022-10-18T12:00:57.291Z,19
2022-10-18T12:11:05.352Z,39
2022-10-18T12:20:58.451Z,75
2022-10-18T12:30:58.580Z,86
2022-10-18T12:40:59.213Z,77
2022-10-18T12:51:00.021Z,100
2022-10-18T13:01:00.726Z,100
2022-10-18T13:11:01.592Z,100
2022-10-18T13:21:02.229Z,100
2022-10-18T13:31:02.866Z,100
2022-10-18T13:41:03.478Z,100
2022-10-18T13:51:04.038Z,100
2022-10-18T14:01:05.102Z,100
2022-10-18T14:11:05.905Z,100
2022-10-18T14:21:13.617Z,100
2022-10-18T14:31:07.101Z,100
2022-10-18T15:01:07.603Z,100
2022-10-18T15:11:09.301Z,100
2022-10-18T15:21:07.929Z,100
2022-10-18T15:31:08.890Z,100
2022-10-18T15:41:09.689Z,100
2022-10-18T15:51:10.303Z,100
2022-10-18T16:01:10.455Z,99
2022-10-18T16:11:10.614Z,90
2022-10-18T16:21:10.827Z,74
2022-10-18T16:31:11.558Z,48
2022-10-18T16:41:12.045Z,23
2022-10-18T16:51:12.692Z,0
2022-10-18T17:01:13.492Z,0
2022-10-18T17:11:14.369Z,0
2022-10-18T17:11:36.253Z,0
2022-10-18T17:21:20.625Z,100
2022-10-18T17:31:21.038Z,0
2022-10-18T17:41:21.251Z,0
2022-10-18T17:51:21.605Z,10
2022-10-18T18:01:21.646Z,0
2022-10-18T18:11:22.349Z,75
2022-10-18T18:21:23.377Z,72
2022-10-18T18:31:24.129Z,62
2022-10-18T18:41:24.972Z,65
2022-10-18T18:51:25.283Z,49
2022-10-18T19:01:25.839Z,66
2022-10-18T19:11:26.363Z,53
2022-10-18T19:21:27.190Z,52
2022-10-18T19:31:27.598Z,25
2022-10-18T19:41:27.759Z,39
2022-10-18T19:51:28.562Z,54
2022-10-18T20:01:29.014Z,10
2022-10-18T20:11:29.049Z,59
2022-10-18T20:21:29.631Z,44
2022-10-18T20:41:30.700Z,24
2022-10-18T20:51:30.871Z,24
2022-10-18T21:01:31.696Z,12
2022-10-18T21:11:32.237Z,0
2022-10-18T21:21:32.477Z,7
2022-10-18T21:31:32.814Z,31
2022-10-18T21:41:33.834Z,13
2022-10-18T21:51:34.777Z,19
2022-10-18T22:01:35.422Z,20
2022-10-18T22:11:35.604Z,9
2022-10-18T22:21:36.573Z,0
2022-10-18T22:31:37.347Z,35
2022-10-18T22:41:37.971Z,37
2022-10-18T22:51:38.116Z,41
2022-10-18T23:01:38.760Z,21
2022-10-18T23:11:39.161Z,37
2022-10-18T23:21:40.100Z,29
2022-10-18T23:31:40.247Z,0
2022-10-18T23:41:41.100Z,16
2022-10-18T23:51:41.787Z,23
